North Platte, NE

3:02 AM CDT on September 03, 2014 (GMT -0500)
K0KDC North Platte | Change Station
CLOSE
Current Station
Personal Weather Station
Location: North Platte, NE
Elevation: 2808 ft
Nearby Weather Stations

Elev 2808 ft 41.14 °N, 100.77 °W | Updated 2 minutes ago

Clear
Clear
69.0 °F
Feels Like 69.0 °F
N
4.0
Wind Variable Wind from SSE
Gusts 10.0 mph

Today
High -- | Low -- °F
--% Chance of Precip.
Yesterday
High -- | Low -- °F
Precip. -- in
7:11 AM 8:12 PM
First Quarter, 60% visible
Pressure 29.78 in
Visibility 10.0 miles
Clouds Clear
Dew Point 65 °F
Humidity 87%
Rainfall -999.00 in
Snow Depth Not available.
UV 0 out of 12
Pollen 9.40 out of 12
Air Quality Not available.
Flu Activity Not available.
METAR KLBF 030753Z AUTO 15007G16KT 10SM CLR 20/18 A2985 RMK AO2 SLP082 T02000178

More Conditions Fewer Conditions

Pressure 29.78 in
Visibility 10.0 miles
Clouds Clear
Dew Point 65 °F
Humidity 87%
Rainfall -999.00 in
Snow Depth Not available.
UV 0 out of 12
Pollen 9.40 out of 12
Air Quality Not available.
Flu Activity Not available.
METAR KLBF 030753Z AUTO 15007G16KT 10SM CLR 20/18 A2985 RMK AO2 SLP082 T02000178

More Conditions Fewer Conditions

10-Day Weather Forecast

Almanac

Astronomy

Sep. 03, 2014 Rise Set
Actual Time 7:11 AM CDT 8:12 PM CDT
Civil Twilight 6:43 AM CDT 8:40 PM CDT
Nautical Twilight 6:09 AM CDT 9:13 PM CDT
Astronomical Twilight 5:34 AM CDT 9:48 PM CDT
Moon 3:58 PM CDT 1:05 AM CDT
Length of Visible Light 13h 57m
Length of Day
13h 00m
Tomorrow will be 2m 39s shorter.
First Quarter, 60% of the Moon is Illuminated
Today
First Quarter
Sep 8
Full
Sep 15
Last Quarter
Sep 24
New
Oct 1
First Quarter

Today's Extremes

State Highs State Lows

Community

WunderPhotos

Upload Photos

1,749,902 photos uploaded!

Nearby

Snow Depth

Station Depth Elevation
No new snow has been reported.

Earthquake Activity

City Distance Mag. Time & Date
No recent earthquake activity has been reported nearby.
Minimum magnitude displayed is 2.5.

Coastal Water Temperatures

Place Temperature
No Stations Reporting

Nearby Weather Stations